Time;durP1;ratioP1;P1;durP2;ratioP2;P2;SDS_P1;SDS_P2;PMS_P1;PMS_P2;Temp;Humidity;BMP_temperature;BMP_pressure;BME280_temperature;BME280_humidity;BME280_pressure;Samples;Min_cycle;Max_cycle;Signal;HPM_P1;HPM_P2
2024/01/17 00:03:42;;;;;;;9.57;4.70;;;;;;;-2.37;73.53;99141.16;10481694;28;20048;-81
2024/01/17 00:08:45;;;;;;;10.52;4.93;;;;;;;-2.66;74.37;99129.41;10488618;28;21187;-80
2024/01/17 00:13:48;;;;;;;11.85;4.70;;;;;;;-2.47;73.98;99126.75;10454124;28;20048;-81
2024/01/17 00:18:55;;;;;;;11.07;4.45;;;;;;;-2.51;74.10;99120.78;10456011;28;20051;-80
2024/01/17 00:23:58;;;;;;;9.88;5.03;;;;;;;-2.48;73.20;99116.31;10461861;28;20535;-80
2024/01/17 00:29:01;;;;;;;9.00;4.43;;;;;;;-2.45;72.86;99116.16;10471762;28;20741;-81
2024/01/17 00:34:05;;;;;;;10.57;4.88;;;;;;;-2.34;72.48;99092.84;10468414;28;20044;-79
2024/01/17 00:39:09;;;;;;;6.32;3.72;;;;;;;-2.40;72.54;99086.09;10459014;28;20047;-80
2024/01/17 00:44:16;;;;;;;6.70;3.22;;;;;;;-2.60;73.67;99088.84;10454128;28;20071;-81
2024/01/17 00:49:21;;;;;;;10.02;4.20;;;;;;;-2.51;73.41;99075.25;10489923;28;20052;-79
2024/01/17 00:54:24;;;;;;;12.35;4.07;;;;;;;-2.66;73.16;99082.09;10470267;28;20744;-80
2024/01/17 00:59:27;;;;;;;6.88;3.35;;;;;;;-2.65;73.32;99091.69;10442949;28;20059;-80
2024/01/17 01:04:31;;;;;;;10.00;4.10;;;;;;;-2.58;73.05;99079.97;10463858;28;20076;-81
2024/01/17 01:09:34;;;;;;;21.08;4.68;;;;;;;-2.64;73.47;99068.84;10461136;28;20044;-80
2024/01/17 01:14:38;;;;;;;11.88;4.05;;;;;;;-2.44;72.70;99078.41;10454378;28;20063;-80
2024/01/17 01:19:42;;;;;;;11.05;4.72;;;;;;;-2.32;71.87;99065.53;10448412;28;20056;-80
2024/01/17 01:24:45;;;;;;;9.60;4.30;;;;;;;-2.96;73.03;99077.34;10444189;28;20055;-80
2024/01/17 01:29:48;;;;;;;9.38;4.85;;;;;;;-2.67;73.16;99069.84;10464489;28;20438;-80
2024/01/17 01:34:52;;;;;;;7.57;4.70;;;;;;;-3.13;74.77;99061.50;10447528;28;20650;-79
2024/01/17 01:39:55;;;;;;;12.40;5.20;;;;;;;-2.92;74.56;99075.41;10483325;28;20063;-79
2024/01/17 01:44:58;;;;;;;7.15;3.70;;;;;;;-3.05;75.07;99063.75;10467685;28;20507;-80
2024/01/17 01:50:05;;;;;;;17.58;6.47;;;;;;;-3.23;75.15;99049.72;10475581;28;20273;-80
2024/01/17 01:55:08;;;;;;;15.68;5.70;;;;;;;-3.01;75.29;99031.19;10458880;28;20037;-80
2024/01/17 02:00:13;;;;;;;13.50;4.50;;;;;;;-2.91;74.95;99028.97;10452719;28;20049;-79
2024/01/17 02:05:18;;;;;;;13.40;5.53;;;;;;;-2.87;74.53;99041.06;10468505;28;20061;-79
2024/01/17 02:10:22;;;;;;;10.27;5.70;;;;;;;-2.98;74.37;99029.25;10449014;28;20063;-79
2024/01/17 02:15:24;;;;;;;11.68;5.30;;;;;;;-3.15;74.71;99023.06;10451641;28;20051;-80
2024/01/17 02:20:29;;;;;;;18.30;5.57;;;;;;;-3.12;74.86;99005.41;10457192;28;20079;-80
2024/01/17 02:25:33;;;;;;;11.75;5.22;;;;;;;-3.02;74.65;98993.53;10459240;28;20075;-79
2024/01/17 02:30:36;;;;;;;14.00;5.35;;;;;;;-3.02;74.07;98969.88;10449007;28;20056;-79
2024/01/17 02:35:39;;;;;;;12.45;5.40;;;;;;;-3.03;74.23;98968.19;10443269;28;20048;-78
2024/01/17 02:40:44;;;;;;;14.10;5.80;;;;;;;-3.06;74.50;98955.22;10472516;28;20040;-81
2024/01/17 02:45:47;;;;;;;13.98;6.10;;;;;;;-3.09;74.23;98923.84;10448525;28;20059;-81
2024/01/17 02:50:50;;;;;;;9.85;4.60;;;;;;;-3.11;73.72;98914.31;10453680;28;20048;-80
2024/01/17 02:55:54;;;;;;;13.98;5.65;;;;;;;-3.12;73.94;98916.09;10466394;28;20055;-81
2024/01/17 03:00:57;;;;;;;11.00;5.75;;;;;;;-3.13;73.62;98908.28;10448463;28;20052;-81
2024/01/17 03:06:01;;;;;;;14.18;6.25;;;;;;;-3.12;73.52;98905.59;10456484;28;20048;-81
2024/01/17 03:11:06;;;;;;;12.00;6.85;;;;;;;-3.10;73.47;98902.88;10462477;28;20153;-81
2024/01/17 03:16:09;;;;;;;13.35;6.50;;;;;;;-3.09;72.66;98889.69;10456633;28;20052;-80
2024/01/17 03:21:13;;;;;;;12.50;6.75;;;;;;;-3.04;72.26;98876.34;10457649;28;20048;-81
2024/01/17 03:26:18;;;;;;;8.70;4.70;;;;;;;-3.02;71.55;98861.31;10467095;28;20058;-81
2024/01/17 03:31:22;;;;;;;11.88;5.10;;;;;;;-3.00;71.55;98847.19;10458585;28;20071;-80
2024/01/17 03:36:25;;;;;;;14.40;6.05;;;;;;;-2.92;71.96;98833.66;10462866;28;20768;-80
2024/01/17 03:41:29;;;;;;;13.48;5.88;;;;;;;-2.87;71.52;98818.53;10451309;28;20135;-80
2024/01/17 03:46:32;;;;;;;13.38;7.28;;;;;;;-2.94;72.09;98806.63;10456839;28;20100;-81
2024/01/17 03:51:35;;;;;;;17.38;6.53;;;;;;;-2.98;71.58;98811.19;10453664;28;20342;-80
2024/01/17 03:56:39;;;;;;;14.32;5.85;;;;;;;-2.94;71.95;98788.22;10463810;28;20507;-81
2024/01/17 04:01:43;;;;;;;13.05;5.22;;;;;;;-2.92;71.17;98790.78;10485398;28;20040;-80
2024/01/17 04:06:46;;;;;;;13.98;5.47;;;;;;;-2.89;71.09;98780.13;10451919;28;20139;-81
2024/01/17 04:11:52;;;;;;;11.35;5.47;;;;;;;-2.83;70.41;98770.13;10459227;28;20063;-80
2024/01/17 04:16:55;;;;;;;11.30;4.82;;;;;;;-2.84;69.99;98775.47;10458224;28;20087;-80
2024/01/17 04:22:01;;;;;;;12.45;5.60;;;;;;;-2.87;70.04;98778.25;10451379;28;20710;-81
2024/01/17 04:27:06;;;;;;;10.32;5.78;;;;;;;-2.92;70.02;98775.03;10453022;28;20049;-81
2024/01/17 04:32:09;;;;;;;20.02;6.13;;;;;;;-2.88;70.06;98769.53;10460067;28;20151;-80
2024/01/17 04:37:12;;;;;;;13.90;5.63;;;;;;;-2.93;70.39;98762.78;10445807;28;20078;-80
2024/01/17 04:42:16;;;;;;;12.15;6.13;;;;;;;-2.92;70.46;98751.38;10461582;28;20709;-80
2024/01/17 04:47:19;;;;;;;13.73;5.90;;;;;;;-2.98;71.16;98737.63;10457825;28;20059;-80
2024/01/17 04:52:22;;;;;;;15.95;6.03;;;;;;;-2.85;70.75;98719.44;10472409;28;20127;-79
2024/01/17 04:57:27;;;;;;;12.13;5.80;;;;;;;-2.81;70.66;98707.00;10456613;28;20055;-80
2024/01/17 05:02:30;;;;;;;15.25;6.07;;;;;;;-2.83;70.69;98690.44;10457454;28;20056;-80
2024/01/17 05:07:33;;;;;;;13.73;5.53;;;;;;;-2.78;70.77;98670.03;10448798;28;21428;-80
2024/01/17 05:12:38;;;;;;;17.75;6.43;;;;;;;-2.83;70.54;98659.75;10442333;28;20059;-80
2024/01/17 05:17:42;;;;;;;15.73;6.30;;;;;;;-2.75;70.16;98654.09;10458778;28;20411;-81
2024/01/17 05:22:45;;;;;;;12.38;6.45;;;;;;;-2.73;70.10;98653.09;10483955;28;20040;-80
2024/01/17 05:27:52;;;;;;;17.80;6.10;;;;;;;-2.77;69.89;98637.56;10466250;28;20055;-79
2024/01/17 05:32:55;;;;;;;10.68;6.03;;;;;;;-2.77;69.73;98630.53;10447845;28;20044;-80
2024/01/17 05:37:59;;;;;;;10.68;5.43;;;;;;;-2.71;69.48;98610.97;10452347;28;20044;-81
2024/01/17 05:43:04;;;;;;;12.70;5.93;;;;;;;-2.63;68.62;98605.25;10445073;28;21215;-80
2024/01/17 05:48:07;;;;;;;15.98;6.75;;;;;;;-2.55;68.96;98595.16;10457396;28;20049;-81
2024/01/17 05:53:10;;;;;;;14.55;7.68;;;;;;;-2.51;69.13;98604.59;10439926;28;20052;-79
2024/01/17 05:58:15;;;;;;;12.05;6.32;;;;;;;-2.62;69.86;98588.56;10448250;28;20055;-79
2024/01/17 06:03:18;;;;;;;9.88;6.07;;;;;;;-2.72;68.57;98577.69;10447565;28;20044;-79
2024/01/17 06:08:22;;;;;;;14.43;6.43;;;;;;;-2.61;68.09;98566.59;10447901;28;20182;-80
2024/01/17 06:13:26;;;;;;;13.18;5.78;;;;;;;-2.66;68.00;98550.22;10474043;28;20041;-78
2024/01/17 06:18:29;;;;;;;12.77;5.80;;;;;;;-2.79;70.09;98548.31;10449480;28;20053;-80
2024/01/17 06:23:32;;;;;;;15.60;6.38;;;;;;;-2.98;71.50;98537.94;10451652;28;20524;-78
2024/01/17 06:28:36;;;;;;;12.13;6.35;;;;;;;-3.04;72.74;98533.03;10452694;28;20128;-81
2024/01/17 06:33:40;;;;;;;12.73;5.93;;;;;;;-3.08;72.44;98523.63;10457517;28;20036;-81
2024/01/17 06:38:43;;;;;;;16.00;7.13;;;;;;;-3.11;72.55;98530.81;10451196;28;20048;-81
2024/01/17 06:43:47;;;;;;;12.15;6.68;;;;;;;-3.22;72.71;98534.03;10462433;28;20530;-80
2024/01/17 06:48:50;;;;;;;14.90;6.55;;;;;;;-3.22;73.10;98516.50;10468670;28;20052;-81
2024/01/17 06:53:53;;;;;;;17.00;7.63;;;;;;;-3.22;73.51;98513.88;10458599;28;20618;-81
2024/01/17 06:58:58;;;;;;;16.85;7.43;;;;;;;-3.31;73.92;98511.75;10459172;28;20665;-81
2024/01/17 07:04:01;;;;;;;17.80;8.07;;;;;;;-3.41;74.53;98510.53;10446570;28;20041;-79
2024/01/17 07:09:04;;;;;;;14.77;7.78;;;;;;;-3.36;74.48;98499.81;10457529;28;20514;-81
2024/01/17 07:14:08;;;;;;;21.10;8.02;;;;;;;-3.36;74.70;98495.41;10448413;28;20195;-81
2024/01/17 07:19:11;;;;;;;17.30;8.38;;;;;;;-3.49;74.38;98503.06;10458474;28;20045;-80
2024/01/17 07:24:14;;;;;;;13.40;7.45;;;;;;;-3.43;74.53;98492.25;10455397;28;20171;-81
2024/01/17 07:29:19;;;;;;;21.90;8.68;;;;;;;-3.42;75.13;98493.09;10460153;28;20431;-81
2024/01/17 07:34:22;;;;;;;20.20;10.25;;;;;;;-3.38;75.52;98478.03;10448316;28;20053;-81
2024/01/17 07:39:25;;;;;;;19.05;7.60;;;;;;;-3.50;75.90;98463.78;10455050;28;20044;-81
2024/01/17 07:44:30;;;;;;;16.73;8.88;;;;;;;-3.43;75.91;98458.13;10463434;28;20500;-79
2024/01/17 07:49:36;;;;;;;18.17;9.27;;;;;;;-3.55;76.69;98437.78;10494592;28;20086;-79
2024/01/17 07:54:39;;;;;;;20.40;9.98;;;;;;;-3.35;76.59;98441.94;10487942;28;20053;-79
2024/01/17 07:59:44;;;;;;;20.90;9.65;;;;;;;-3.52;76.28;98437.63;10454737;28;20200;-80
2024/01/17 08:04:48;;;;;;;26.55;11.35;;;;;;;-3.44;76.67;98426.69;10450760;28;21183;-80
2024/01/17 08:09:52;;;;;;;23.38;10.68;;;;;;;-3.34;76.91;98406.06;10446581;28;20041;-80
2024/01/17 08:14:56;;;;;;;25.45;12.18;;;;;;;-3.23;76.88;98386.13;10438376;28;20052;-80
2024/01/17 08:19:59;;;;;;;23.58;11.32;;;;;;;-3.20;76.52;98388.59;10455713;28;20056;-80
2024/01/17 08:25:03;;;;;;;19.70;11.77;;;;;;;-3.18;76.78;98359.63;10471259;28;20048;-79
2024/01/17 08:30:10;;;;;;;27.17;12.27;;;;;;;-3.08;76.55;98359.94;10474417;28;20148;-81
2024/01/17 08:35:14;;;;;;;43.30;20.70;;;;;;;-2.60;77.65;98356.22;10463342;28;20040;-80
2024/01/17 08:40:17;;;;;;;25.50;12.30;;;;;;;-2.49;73.00;98345.06;10508323;28;20047;-80
2024/01/17 08:45:22;;;;;;;29.90;12.80;;;;;;;-2.74;73.07;98338.66;10455202;28;20423;-80
2024/01/17 08:50:25;;;;;;;21.58;12.23;;;;;;;-2.80;74.31;98323.25;10456981;28;20166;-79
2024/01/17 08:55:28;;;;;;;26.67;13.60;;;;;;;-2.57;73.52;98308.72;10449081;28;20048;-79
2024/01/17 09:00:32;;;;;;;24.95;12.80;;;;;;;-2.64;72.88;98310.03;10459565;28;20055;-79
2024/01/17 09:05:36;;;;;;;23.67;12.65;;;;;;;-2.48;73.31;98296.81;10465653;28;20051;-79
2024/01/17 09:10:39;;;;;;;27.92;13.35;;;;;;;-2.52;72.48;98292.69;10450242;28;20051;-80
2024/01/17 09:15:43;;;;;;;28.45;13.60;;;;;;;-2.21;72.64;98283.75;10448192;28;20087;-77
2024/01/17 09:20:46;;;;;;;24.65;13.02;;;;;;;-2.17;72.15;98279.13;10453539;28;20508;-79
2024/01/17 09:25:49;;;;;;;24.83;12.95;;;;;;;-1.98;71.58;98268.31;10455188;28;20044;-80
2024/01/17 09:30:53;;;;;;;29.33;13.73;;;;;;;-1.89;70.98;98265.13;10449476;28;20047;-80
2024/01/17 09:35:57;;;;;;;27.77;13.88;;;;;;;-1.73;70.56;98265.78;10453716;28;20066;-78
2024/01/17 09:41:05;;;;;;;25.75;13.23;;;;;;;-1.51;70.07;98259.13;10450513;28;20037;-78
2024/01/17 09:46:12;;;;;;;26.33;14.15;;;;;;;-1.49;69.55;98254.63;10452282;28;21562;-78
2024/01/17 09:51:16;;;;;;;27.13;14.80;;;;;;;-1.43;68.88;98246.31;10457648;28;20424;-77
2024/01/17 09:56:24;;;;;;;28.80;14.10;;;;;;;-1.33;69.58;98242.13;10454456;28;20740;-78
2024/01/17 10:01:31;;;;;;;24.40;14.13;;;;;;;-1.18;68.39;98235.00;10464529;28;20045;-77
2024/01/17 10:06:35;;;;;;;27.02;13.32;;;;;;;-1.34;68.42;98229.06;10449158;28;20049;-77
2024/01/17 10:11:39;;;;;;;30.88;13.45;;;;;;;-1.27;68.13;98218.03;10463013;28;20267;-77
2024/01/17 10:16:43;;;;;;;27.02;13.52;;;;;;;-1.02;68.44;98208.47;10463716;28;20048;-78
2024/01/17 10:21:46;;;;;;;23.40;13.27;;;;;;;-0.87;67.46;98181.06;10457139;28;20538;-77
2024/01/17 10:26:51;;;;;;;23.40;13.13;;;;;;;-0.91;67.09;98171.69;10481305;28;20052;-78
2024/01/17 10:31:59;;;;;;;25.15;13.38;;;;;;;-0.63;67.79;98160.06;10494694;28;20048;-77
2024/01/17 10:37:04;;;;;;;28.95;14.63;;;;;;;-0.80;65.81;98155.97;10487490;28;20055;-78
2024/01/17 10:42:18;;;;;;;24.85;13.13;;;;;;;-0.85;67.24;98139.66;10499022;28;20051;-77
2024/01/17 10:47:23;;;;;;;26.63;13.43;;;;;;;-0.84;67.92;98128.13;10494906;28;20062;-77
2024/01/17 10:52:26;;;;;;;27.05;13.15;;;;;;;-0.85;67.08;98108.00;10494621;28;20043;-77
2024/01/17 10:57:33;;;;;;;26.98;15.43;;;;;;;-1.01;66.66;98110.03;10494822;28;20119;-78
2024/01/17 11:02:41;;;;;;;27.42;13.98;;;;;;;-0.99;67.02;98100.22;10493624;28;20052;-77
2024/01/17 11:07:45;;;;;;;23.85;12.25;;;;;;;-0.92;66.36;98092.72;10477008;28;20049;-78
2024/01/17 11:12:48;;;;;;;27.50;11.98;;;;;;;-0.73;67.22;98082.56;10478397;28;20055;-78
2024/01/17 11:17:57;;;;;;;33.15;12.95;;;;;;;-0.44;65.85;98074.34;10491499;28;20053;-77
2024/01/17 11:23:02;;;;;;;24.55;14.18;;;;;;;-0.14;64.86;98068.63;10456064;28;21347;-76
2024/01/17 11:28:19;;;;;;;26.38;13.20;;;;;;;-0.25;64.38;98060.66;10465014;28;20632;-77
2024/01/17 11:33:25;;;;;;;26.55;12.93;;;;;;;-0.37;65.02;98050.06;10489780;28;20056;-76
2024/01/17 11:38:32;;;;;;;34.95;15.73;;;;;;;-0.18;65.09;98046.06;10487584;28;20048;-77
2024/01/17 11:43:38;;;;;;;35.90;14.23;;;;;;;-0.11;64.42;98034.97;10488710;28;20120;-78
2024/01/17 11:48:43;;;;;;;21.60;12.68;;;;;;;-0.47;65.55;98017.38;10516146;28;20158;-78
2024/01/17 11:53:50;;;;;;;27.27;12.63;;;;;;;-0.51;65.87;98016.78;10496569;28;20048;-78
2024/01/17 11:58:54;;;;;;;22.98;12.18;;;;;;;-0.22;65.53;98005.91;10505338;28;20054;-77
2024/01/17 12:03:58;;;;;;;27.60;13.18;;;;;;;-0.17;66.09;97989.69;10521889;28;20040;-77
2024/01/17 12:09:02;;;;;;;31.80;15.25;;;;;;;-0.07;64.83;97980.13;10493979;28;20047;-78
2024/01/17 12:14:05;;;;;;;24.85;13.52;;;;;;;-0.02;64.85;97964.81;10522935;28;20104;-77
2024/01/17 12:19:11;;;;;;;25.95;12.32;;;;;;;0.09;64.96;97951.63;10501642;28;20072;-77
2024/01/17 12:24:14;;;;;;;25.30;12.30;;;;;;;-0.01;64.01;97936.59;10454168;28;20048;-76
2024/01/17 12:29:18;;;;;;;30.23;13.73;;;;;;;-0.06;63.90;97934.31;10469033;28;20137;-77
2024/01/17 12:34:23;;;;;;;24.77;13.18;;;;;;;0.14;63.44;97930.16;10460679;28;20045;-77
2024/01/17 12:39:26;;;;;;;23.10;12.90;;;;;;;0.14;63.00;97916.97;10452826;28;20077;-77
2024/01/17 12:44:30;;;;;;;27.67;12.93;;;;;;;0.08;63.21;97901.56;10457095;28;20053;-76
2024/01/17 12:49:34;;;;;;;27.95;14.48;;;;;;;-0.01;63.38;97892.56;10461104;28;20556;-77
2024/01/17 12:54:37;;;;;;;22.90;12.52;;;;;;;-0.05;64.24;97893.78;10481810;28;20063;-77
2024/01/17 12:59:40;;;;;;;26.42;13.02;;;;;;;-0.08;64.05;97894.03;10505018;28;20056;-77
2024/01/17 13:05:09;;;;;;;25.02;12.55;;;;;;;-0.28;64.88;97888.44;10500707;28;20090;-76
2024/01/17 13:10:17;;;;;;;23.70;12.60;;;;;;;-0.21;65.16;97885.38;10466316;28;20053;-76
2024/01/17 13:15:21;;;;;;;25.83;12.35;;;;;;;-0.11;65.70;97883.69;10504144;28;20053;-77
2024/01/17 13:20:27;;;;;;;24.45;11.85;;;;;;;-0.17;66.00;97871.78;10483528;28;20469;-75
2024/01/17 13:25:31;;;;;;;27.70;11.70;;;;;;;-0.18;65.68;97869.28;10459169;28;20044;-77
2024/01/17 13:30:36;;;;;;;23.92;11.57;;;;;;;-0.19;65.52;97860.53;10494526;28;20062;-77
2024/01/17 13:35:43;;;;;;;26.20;11.68;;;;;;;-0.22;66.09;97855.50;10461535;28;20129;-76
2024/01/17 13:40:46;;;;;;;27.08;11.48;;;;;;;-0.30;66.01;97847.34;10458950;28;20040;-76
2024/01/17 13:45:49;;;;;;;25.02;12.32;;;;;;;-0.36;66.52;97843.34;10441006;28;20040;-76
2024/01/17 13:50:54;;;;;;;24.52;12.35;;;;;;;-0.33;66.03;97837.88;10453879;28;20504;-78
2024/01/17 13:55:58;;;;;;;23.38;11.48;;;;;;;-0.21;66.21;97835.22;10447763;28;20269;-77
2024/01/17 14:01:04;;;;;;;19.27;10.77;;;;;;;-0.30;66.07;97823.59;10464194;28;20068;-77
2024/01/17 14:06:09;;;;;;;26.23;11.77;;;;;;;-0.30;66.05;97819.16;10463178;28;20045;-76
2024/01/17 14:11:13;;;;;;;26.92;13.27;;;;;;;-0.25;65.85;97823.22;10475833;28;20051;-77
2024/01/17 14:16:16;;;;;;;23.63;11.98;;;;;;;-0.31;66.14;97817.47;10481997;28;21339;-77
2024/01/17 14:21:21;;;;;;;26.00;11.63;;;;;;;-0.22;67.11;97812.44;10459061;28;20052;-77
2024/01/17 14:26:24;;;;;;;26.80;12.27;;;;;;;-0.18;66.97;97813.88;10467043;28;20488;-77
2024/01/17 14:31:27;;;;;;;26.25;11.55;;;;;;;-0.27;65.74;97807.53;10454553;28;20044;-76
2024/01/17 14:36:32;;;;;;;22.45;12.68;;;;;;;-0.34;66.45;97798.41;10478863;28;20063;-77
2024/01/17 14:41:35;;;;;;;21.58;10.70;;;;;;;-0.28;67.43;97788.19;10469484;28;20054;-77
2024/01/17 14:46:38;;;;;;;24.40;12.35;;;;;;;-0.21;67.80;97778.03;10474354;28;20044;-76
2024/01/17 14:51:43;;;;;;;21.23;11.63;;;;;;;-0.19;67.85;97783.16;10486528;28;20051;-77
2024/01/17 14:56:46;;;;;;;22.23;12.45;;;;;;;-0.21;67.93;97771.91;10472600;28;20051;-77
2024/01/17 15:01:49;;;;;;;21.02;12.27;;;;;;;-0.25;68.30;97765.19;10464306;28;20055;-77
2024/01/17 15:06:54;;;;;;;24.90;13.23;;;;;;;-0.34;68.11;97754.41;10456260;28;20055;-76
2024/01/17 15:11:57;;;;;;;24.98;13.73;;;;;;;-0.37;68.42;97756.44;10456716;28;20133;-78
2024/01/17 15:17:01;;;;;;;30.35;13.73;;;;;;;-0.39;68.47;97758.34;10458255;28;20056;-77
2024/01/17 15:22:05;;;;;;;20.70;12.23;;;;;;;-0.46;68.42;97755.38;10458031;28;20045;-77
2024/01/17 15:27:08;;;;;;;23.05;12.27;;;;;;;-0.46;68.37;97754.53;10471144;28;20085;-76
2024/01/17 15:32:12;;;;;;;23.35;13.05;;;;;;;-0.47;68.81;97753.66;10461239;28;20049;-78
2024/01/17 15:37:16;;;;;;;25.67;13.07;;;;;;;-0.49;69.35;97755.59;10488779;28;20048;-76
2024/01/17 15:42:20;;;;;;;28.77;12.90;;;;;;;-0.47;69.48;97760.75;10494064;28;20051;-76
2024/01/17 15:47:23;;;;;;;25.30;12.90;;;;;;;-0.48;69.18;97754.63;10488244;28;20048;-76
2024/01/17 15:52:27;;;;;;;22.88;12.38;;;;;;;-0.45;69.37;97748.28;10473411;28;20138;-77
2024/01/17 15:57:30;;;;;;;23.65;11.60;;;;;;;-0.49;69.51;97752.97;10496294;28;20515;-78
2024/01/17 16:02:33;;;;;;;25.92;12.43;;;;;;;-0.47;69.41;97756.31;10496914;28;20052;-77
2024/01/17 16:07:39;;;;;;;23.38;13.90;;;;;;;-0.43;69.90;97752.47;10495249;28;20165;-77
2024/01/17 16:12:43;;;;;;;29.95;14.45;;;;;;;-0.47;69.85;97737.84;10469626;28;20113;-77
2024/01/17 16:17:46;;;;;;;23.90;12.95;;;;;;;-0.48;70.35;97736.19;10451955;28;20940;-76
2024/01/17 16:22:50;;;;;;;23.38;12.55;;;;;;;-0.50;69.70;97725.72;10455531;28;20051;-77
2024/01/17 16:27:54;;;;;;;25.80;12.95;;;;;;;-0.51;70.25;97733.78;10481605;28;20052;-76
2024/01/17 16:32:58;;;;;;;24.10;13.93;;;;;;;-0.51;69.73;97726.69;10461113;28;20559;-76
2024/01/17 16:38:03;;;;;;;24.02;14.10;;;;;;;-0.53;69.64;97720.69;10464637;28;20052;-78
2024/01/17 16:43:06;;;;;;;28.00;15.40;;;;;;;-0.52;69.94;97708.38;10452273;28;20058;-77
2024/01/17 16:48:09;;;;;;;23.98;13.85;;;;;;;-0.51;70.13;97712.69;10464518;28;20047;-78
2024/01/17 16:53:14;;;;;;;26.75;13.75;;;;;;;-0.46;70.39;97705.25;10472606;28;20044;-78
2024/01/17 16:58:17;;;;;;;26.65;14.82;;;;;;;-0.46;70.37;97699.16;10465231;28;20121;-75
2024/01/17 17:03:20;;;;;;;28.73;15.68;;;;;;;-0.46;70.62;97697.34;10491104;28;20527;-75
2024/01/17 17:08:24;;;;;;;30.77;15.98;;;;;;;-0.42;70.53;97692.66;10455311;28;20119;-75
2024/01/17 17:13:28;;;;;;;27.55;14.15;;;;;;;-0.39;70.63;97705.59;10460035;28;20052;-75
2024/01/17 17:18:32;;;;;;;25.80;13.95;;;;;;;-0.40;70.33;97704.78;10516613;28;20707;-79
2024/01/17 17:23:36;;;;;;;27.50;14.35;;;;;;;-0.41;70.33;97705.75;10499866;28;20058;-76
2024/01/17 17:28:39;;;;;;;25.02;14.30;;;;;;;-0.36;70.60;97711.47;10518381;28;20052;-76
2024/01/17 17:33:42;;;;;;;25.80;15.35;;;;;;;-0.36;70.40;97711.47;10493042;28;20050;-75
2024/01/17 17:38:47;;;;;;;27.00;15.20;;;;;;;-0.41;70.00;97715.44;10496203;28;20057;-76
2024/01/17 17:43:50;;;;;;;25.17;14.32;;;;;;;-0.42;70.47;97717.22;10465343;28;20051;-76
2024/01/17 17:48:53;;;;;;;27.00;15.02;;;;;;;-0.38;71.30;97725.75;10498704;28;20059;-77
2024/01/17 17:53:59;;;;;;;30.13;15.05;;;;;;;-0.51;71.78;97731.16;10513118;28;20039;-77
2024/01/17 17:59:02;;;;;;;31.25;14.02;;;;;;;-0.45;71.74;97735.09;10507931;28;20125;-77
2024/01/17 18:04:06;;;;;;;27.85;14.60;;;;;;;-0.42;71.59;97735.69;10468153;28;20045;-77
2024/01/17 18:09:10;;;;;;;28.48;13.82;;;;;;;-0.59;71.13;97725.63;10484168;28;20121;-76
2024/01/17 18:14:14;;;;;;;23.88;13.52;;;;;;;-0.61;72.30;97738.91;10481695;28;20177;-76
2024/01/17 18:19:17;;;;;;;24.15;13.05;;;;;;;-0.57;73.59;97727.19;10495187;28;20044;-76
2024/01/17 18:24:22;;;;;;;27.77;15.20;;;;;;;-0.57;72.58;97729.00;10458251;28;20044;-75
2024/01/17 18:29:25;;;;;;;26.17;13.75;;;;;;;-0.55;72.85;97725.28;10452611;28;20457;-75
2024/01/17 18:34:28;;;;;;;29.75;15.20;;;;;;;-0.47;72.54;97742.28;10471811;28;20060;-76
2024/01/17 18:39:32;;;;;;;33.15;14.82;;;;;;;-0.46;72.68;97734.25;10456119;28;20048;-78
2024/01/17 18:44:35;;;;;;;26.63;13.95;;;;;;;-0.45;72.72;97730.66;10496786;28;20044;-76
2024/01/17 18:49:38;;;;;;;26.05;13.90;;;;;;;-0.51;71.42;97728.50;10494851;28;20059;-76
2024/01/17 18:54:43;;;;;;;24.77;14.77;;;;;;;-0.47;71.99;97735.19;10491766;28;20234;-77
2024/01/17 18:59:47;;;;;;;29.05;14.88;;;;;;;-0.41;72.37;97752.34;10462176;28;20829;-76
2024/01/17 19:04:50;;;;;;;30.77;15.30;;;;;;;-0.42;72.83;97758.59;10457563;28;20048;-77
2024/01/17 19:09:55;;;;;;;32.60;15.38;;;;;;;-0.43;72.56;97762.19;10455118;28;20419;-76
2024/01/17 19:14:58;;;;;;;27.55;14.70;;;;;;;-0.56;73.03;97771.03;10454328;28;20153;-76
2024/01/17 19:20:04;;;;;;;31.38;16.05;;;;;;;-0.59;73.29;97767.81;10446798;28;20472;-77
2024/01/17 19:25:09;;;;;;;30.58;16.23;;;;;;;-0.66;73.99;97772.69;10456384;28;21184;-76
2024/01/17 19:30:15;;;;;;;28.35;16.15;;;;;;;-0.59;74.92;97778.34;10451004;28;20520;-77
2024/01/17 19:35:20;;;;;;;29.55;17.00;;;;;;;-0.60;74.73;97776.69;10459952;28;20048;-76
2024/01/17 19:40:24;;;;;;;28.20;16.73;;;;;;;-0.68;74.49;97781.72;10473113;28;20044;-76
2024/01/17 19:45:28;;;;;;;32.47;16.23;;;;;;;-0.72;75.13;97791.63;10459447;28;20044;-76
2024/01/17 19:50:31;;;;;;;32.45;16.80;;;;;;;-0.66;74.38;97801.69;10463146;28;20052;-76
2024/01/17 19:55:35;;;;;;;34.00;18.58;;;;;;;-0.70;74.35;97796.78;10459962;28;20056;-75
2024/01/17 20:00:38;;;;;;;32.70;17.70;;;;;;;-0.75;73.73;97805.88;10455311;28;20052;-76
2024/01/17 20:05:41;;;;;;;29.38;17.30;;;;;;;-0.74;75.45;97817.25;10464472;28;20044;-78
2024/01/17 20:10:46;;;;;;;34.58;17.35;;;;;;;-0.63;75.50;97825.22;10457598;28;20048;-76
2024/01/17 20:15:50;;;;;;;49.28;27.13;;;;;;;-0.58;75.13;97823.03;10460075;28;20044;-76
2024/01/17 20:20:53;;;;;;;39.00;20.08;;;;;;;-0.61;74.90;97838.25;10465947;28;20981;-76
2024/01/17 20:25:58;;;;;;;37.65;18.52;;;;;;;-0.64;74.20;97828.78;10461786;28;20059;-76
2024/01/17 20:31:01;;;;;;;36.58;19.88;;;;;;;-0.63;74.08;97838.41;10458506;28;20125;-77
2024/01/17 20:36:04;;;;;;;37.00;19.83;;;;;;;-0.65;73.81;97856.13;10460233;28;20050;-75
2024/01/17 20:41:15;;;;;;;37.75;18.52;;;;;;;-0.68;74.13;97868.72;10442591;28;20045;-76
2024/01/17 20:46:18;;;;;;;38.80;17.67;;;;;;;-0.76;74.20;97864.00;10461252;28;20041;-77
2024/01/17 20:51:24;;;;;;;33.80;19.20;;;;;;;-0.80;74.15;97859.91;10452472;28;20052;-78
2024/01/17 20:56:29;;;;;;;41.17;19.83;;;;;;;-0.83;74.21;97855.69;10463128;28;20049;-77
2024/01/17 21:01:37;;;;;;;35.40;18.17;;;;;;;-1.14;75.92;97866.81;10459816;28;20052;-76
2024/01/17 21:06:40;;;;;;;32.40;18.67;;;;;;;-1.26;77.88;97892.25;10451349;28;20040;-77
2024/01/17 21:11:45;;;;;;;33.22;18.88;;;;;;;-1.19;77.58;97906.66;10455196;28;20121;-75
2024/01/17 21:16:49;;;;;;;32.38;17.90;;;;;;;-1.18;77.82;97900.44;10458079;28;20464;-75
2024/01/17 21:21:52;;;;;;;34.53;19.55;;;;;;;-1.13;78.40;97906.22;10458109;28;20048;-76
2024/01/17 21:26:56;;;;;;;33.75;19.30;;;;;;;-1.03;78.02;97909.88;10453186;28;20053;-76
2024/01/17 21:31:59;;;;;;;31.52;18.10;;;;;;;-1.10;77.02;97907.78;10466976;28;20051;-77
2024/01/17 21:37:02;;;;;;;36.35;19.50;;;;;;;-1.18;75.60;97909.19;10443111;28;20508;-76
2024/01/17 21:42:07;;;;;;;36.72;18.60;;;;;;;-1.24;75.26;97914.88;10437858;28;20504;-78
2024/01/17 21:47:10;;;;;;;31.67;18.63;;;;;;;-1.32;75.50;97921.66;10445416;28;20132;-77
2024/01/17 21:52:13;;;;;;;33.15;18.30;;;;;;;-1.37;76.29;97921.16;10452808;28;20055;-77
2024/01/17 21:57:18;;;;;;;38.10;19.38;;;;;;;-1.40;77.12;97932.72;10461191;28;20048;-76
2024/01/17 22:02:21;;;;;;;37.20;19.77;;;;;;;-1.37;77.96;97937.81;10463355;28;20143;-76
2024/01/17 22:07:25;;;;;;;35.05;19.05;;;;;;;-1.37;77.15;97934.31;10448828;28;20051;-76
2024/01/17 22:12:29;;;;;;;38.75;19.52;;;;;;;-1.33;77.20;97947.16;10471537;28;20393;-75
2024/01/17 22:17:33;;;;;;;42.30;20.50;;;;;;;-1.40;77.79;97953.81;10458786;28;20195;-77
2024/01/17 22:22:36;;;;;;;40.38;18.70;;;;;;;-1.44;76.34;97949.72;10456703;28;20052;-77
2024/01/17 22:27:40;;;;;;;39.28;19.02;;;;;;;-1.47;76.65;97944.66;10463661;28;21177;-77
2024/01/17 22:32:43;;;;;;;36.50;19.65;;;;;;;-1.36;76.18;97950.00;10461847;28;20040;-78
2024/01/17 22:37:47;;;;;;;35.05;17.88;;;;;;;-1.47;76.19;97961.31;10454860;28;20052;-77
2024/01/17 22:42:51;;;;;;;35.83;18.85;;;;;;;-1.47;76.17;97949.94;10456151;28;20060;-77
2024/01/17 22:47:54;;;;;;;37.67;19.90;;;;;;;-1.59;77.11;97953.41;10455455;28;20581;-78
2024/01/17 22:52:57;;;;;;;43.42;21.10;;;;;;;-1.47;77.12;97945.50;10464920;28;20060;-77
2024/01/17 22:58:07;;;;;;;41.60;19.33;;;;;;;-1.38;77.19;97945.81;10442600;28;20048;-80
2024/01/17 23:03:10;;;;;;;38.78;18.88;;;;;;;-1.47;76.87;97944.66;10437349;28;20539;-80
2024/01/17 23:08:13;;;;;;;42.75;18.60;;;;;;;-1.42;76.99;97971.53;10453455;28;21142;-80